Time;durP1;ratioP1;P1;durP2;ratioP2;P2;SDS_P1;SDS_P2;PMS_P1;PMS_P2;Temp;Humidity;BMP_temperature;BMP_pressure;BME280_temperature;BME280_humidity;BME280_pressure;Samples;Min_cycle;Max_cycle;Signal;HPM_P1;HPM_P2
2022/03/28 00:02:10;;;;;;;15.85;9.25;;;;;;;0.51;41.49;101428.38;1701247;82;21103;-74
2022/03/28 00:04:38;;;;;;;16.90;9.38;;;;;;;0.51;41.72;101432.81;1684386;83;21101;-74
2022/03/28 00:07:06;;;;;;;18.45;9.28;;;;;;;0.50;42.08;101432.50;1684474;83;21517;-74
2022/03/28 00:09:33;;;;;;;14.23;8.03;;;;;;;0.48;42.37;101433.97;1681709;83;21134;-74
2022/03/28 00:12:04;;;;;;;15.45;8.55;;;;;;;0.47;42.77;101427.08;1680235;84;21037;-71
2022/03/28 00:14:31;;;;;;;16.85;8.30;;;;;;;0.47;42.77;101432.34;1691465;84;20945;-71
2022/03/28 00:16:59;;;;;;;15.85;8.88;;;;;;;0.48;42.74;101431.34;1684123;84;21027;-71
2022/03/28 00:19:28;;;;;;;17.07;9.15;;;;;;;0.47;42.65;101434.97;1682099;83;21030;-73
2022/03/28 00:21:56;;;;;;;16.52;9.28;;;;;;;0.44;42.62;101428.23;1676650;84;21134;-75
2022/03/28 00:24:24;;;;;;;19.75;11.12;;;;;;;0.43;42.82;101427.91;1687168;83;22256;-75
2022/03/28 00:26:51;;;;;;;20.37;10.08;;;;;;;0.42;42.97;101424.94;1677121;84;21320;-74
2022/03/28 00:29:18;;;;;;;21.57;10.88;;;;;;;0.42;43.00;101422.81;1679323;83;21102;-72
2022/03/28 00:31:46;;;;;;;22.02;11.53;;;;;;;0.41;42.98;101429.06;1681162;83;21236;-73
2022/03/28 00:34:15;;;;;;;20.17;10.45;;;;;;;0.41;43.22;101427.75;1652138;84;21019;-75
2022/03/28 00:36:45;;;;;;;20.88;11.03;;;;;;;0.39;43.13;101433.66;1666152;83;21740;-74
2022/03/28 00:39:12;;;;;;;18.15;9.78;;;;;;;0.39;43.22;101427.09;1682717;83;21097;-73
2022/03/28 00:41:40;;;;;;;18.37;10.32;;;;;;;0.40;43.46;101426.13;1693374;84;21051;-73
2022/03/28 00:44:08;;;;;;;21.65;10.38;;;;;;;0.38;43.55;101427.59;1714586;82;21030;-73
2022/03/28 00:46:36;;;;;;;21.00;10.90;;;;;;;0.40;43.65;101422.18;1687334;83;21019;-73
2022/03/28 00:49:03;;;;;;;19.57;10.08;;;;;;;0.40;43.64;101424.80;1674137;84;21542;-74
2022/03/28 00:51:30;;;;;;;20.35;9.50;;;;;;;0.40;43.61;101422.18;1679389;83;21012;-74
2022/03/28 00:53:57;;;;;;;17.52;9.45;;;;;;;0.41;43.15;101422.50;1666920;84;21709;-73
2022/03/28 00:56:25;;;;;;;17.57;9.23;;;;;;;0.41;43.04;101426.44;1665265;86;21070;-73
2022/03/28 00:58:52;;;;;;;18.42;9.00;;;;;;;0.37;43.14;101419.39;1672346;83;21054;-74
2022/03/28 01:01:19;;;;;;;13.15;7.33;;;;;;;0.36;43.18;101420.38;1685416;83;21305;-73
2022/03/28 01:03:46;;;;;;;16.57;7.40;;;;;;;0.33;43.13;101413.30;1675644;84;21078;-74
2022/03/28 01:06:14;;;;;;;13.50;7.42;;;;;;;0.31;43.46;101412.67;1675308;84;21102;-74
2022/03/28 01:08:42;;;;;;;14.07;6.87;;;;;;;0.28;43.53;101419.58;1677274;84;21065;-73
2022/03/28 01:11:10;;;;;;;10.32;5.97;;;;;;;0.28;43.53;101418.26;1684941;83;20915;-73
2022/03/28 01:13:40;;;;;;;12.25;5.60;;;;;;;0.30;43.62;101414.98;1680338;84;21282;-73
2022/03/28 01:16:08;;;;;;;10.68;5.12;;;;;;;0.30;43.69;101412.36;1672204;84;21066;-73
2022/03/28 01:18:36;;;;;;;12.95;5.37;;;;;;;0.29;43.82;101410.69;1665367;85;21082;-72
2022/03/28 01:21:04;;;;;;;9.00;4.37;;;;;;;0.28;43.82;101419.58;1694597;83;21589;-72
2022/03/28 01:23:32;;;;;;;10.40;3.50;;;;;;;0.26;43.87;101409.22;1674785;83;21083;-74
2022/03/28 01:26:00;;;;;;;8.90;3.80;;;;;;;0.23;43.75;101397.73;1645195;87;21169;-74
2022/03/28 01:28:28;;;;;;;11.80;4.35;;;;;;;0.23;44.04;101401.66;1660518;83;21022;-74
2022/03/28 01:30:55;;;;;;;9.73;3.77;;;;;;;0.25;44.18;101396.26;1681094;83;21102;-73
2022/03/28 01:33:22;;;;;;;9.00;3.80;;;;;;;0.29;44.21;101406.75;1688174;84;21133;-73
2022/03/28 01:35:51;;;;;;;8.05;3.10;;;;;;;0.29;44.32;101408.06;1680025;84;20887;-73
2022/03/28 01:38:19;;;;;;;11.33;4.10;;;;;;;0.29;43.77;101404.13;1693097;83;21724;-71
2022/03/28 01:40:50;;;;;;;11.43;4.37;;;;;;;0.31;43.74;101402.16;1697304;83;20964;-71
2022/03/28 01:43:19;;;;;;;9.05;3.85;;;;;;;0.33;43.82;101398.38;1696164;84;22127;-73
2022/03/28 01:45:48;;;;;;;9.10;3.62;;;;;;;0.36;43.92;101405.93;1680281;83;21050;-75
2022/03/28 01:48:15;;;;;;;9.68;3.45;;;;;;;0.37;43.76;101409.38;1676538;84;21043;-74
2022/03/28 01:50:43;;;;;;;14.38;4.17;;;;;;;0.37;43.61;101404.94;1677777;83;21097;-74
2022/03/28 01:53:11;;;;;;;10.60;4.15;;;;;;;0.39;43.79;101397.68;1675348;83;21472;-73
2022/03/28 01:55:39;;;;;;;8.60;3.58;;;;;;;0.38;43.97;101405.25;1682084;84;21036;-74
2022/03/28 01:58:06;;;;;;;11.55;4.30;;;;;;;0.37;43.99;101397.55;1686893;83;21269;-73
2022/03/28 02:00:33;;;;;;;9.13;4.05;;;;;;;0.35;43.58;101399.02;1678811;83;21086;-73
2022/03/28 02:03:01;;;;;;;8.25;3.62;;;;;;;0.36;43.81;101395.89;1678156;84;21265;-74
2022/03/28 02:05:30;;;;;;;13.40;3.75;;;;;;;0.38;43.80;101396.55;1684379;84;21015;-74
2022/03/28 02:07:59;;;;;;;6.25;2.90;;;;;;;0.37;43.73;101382.59;1679272;83;21061;-73
2022/03/28 02:10:26;;;;;;;9.18;3.92;;;;;;;0.36;43.55;101381.44;1683055;84;21014;-73
2022/03/28 02:12:54;;;;;;;11.15;3.90;;;;;;;0.34;43.69;101375.05;1641125;85;20997;-73
2022/03/28 02:15:22;;;;;;;8.20;2.77;;;;;;;0.31;43.77;101376.70;1631811;87;21147;-73
2022/03/28 02:17:49;;;;;;;8.85;2.72;;;;;;;0.32;43.84;101373.57;1643954;86;21026;-73
2022/03/28 02:20:19;;;;;;;7.10;2.72;;;;;;;0.35;43.95;101385.06;1672763;84;21137;-74
2022/03/28 02:22:47;;;;;;;10.70;3.58;;;;;;;0.39;43.91;101378.47;1646785;86;21222;-74
2022/03/28 02:25:15;;;;;;;7.35;2.65;;;;;;;0.40;43.80;101373.56;1664365;84;21083;-74
2022/03/28 02:27:43;;;;;;;5.28;2.15;;;;;;;0.41;43.64;101373.88;1693714;83;21623;-73
2022/03/28 02:30:12;;;;;;;6.20;2.42;;;;;;;0.43;43.59;101369.28;1688775;83;20944;-72
2022/03/28 02:32:39;;;;;;;6.33;2.62;;;;;;;0.43;43.30;101369.28;1677476;84;21121;-73
2022/03/28 02:35:09;;;;;;;5.35;2.55;;;;;;;0.42;43.48;101367.62;1688909;83;21530;-74
2022/03/28 02:37:36;;;;;;;9.23;2.60;;;;;;;0.41;43.06;101372.06;1675272;83;21015;-73
2022/03/28 02:40:06;;;;;;;6.95;2.65;;;;;;;0.40;43.14;101370.94;1671771;84;21159;-74
2022/03/28 02:42:33;;;;;;;10.58;2.75;;;;;;;0.41;43.30;101372.56;1678192;83;21023;-73
2022/03/28 02:45:02;;;;;;;6.65;2.05;;;;;;;0.43;43.33;101374.04;1647932;85;21039;-73
2022/03/28 02:47:29;;;;;;;7.25;2.30;;;;;;;0.43;43.22;101369.28;1694129;83;21499;-73
2022/03/28 02:49:58;;;;;;;10.03;3.00;;;;;;;0.41;42.95;101365.99;1710853;83;21609;-73
2022/03/28 02:52:25;;;;;;;7.37;2.60;;;;;;;0.37;43.20;101363.39;1693144;83;21274;-73
2022/03/28 02:54:53;;;;;;;8.78;2.90;;;;;;;0.37;43.33;101361.57;1668252;84;20951;-73
2022/03/28 02:57:20;;;;;;;10.58;4.15;;;;;;;0.40;43.04;101368.30;1674800;83;21100;-73
2022/03/28 02:59:47;;;;;;;14.05;3.37;;;;;;;0.40;42.98;101376.19;1674179;84;21082;-74
2022/03/28 03:02:14;;;;;;;8.60;3.00;;;;;;;0.42;42.77;101360.55;1685769;83;21462;-74
2022/03/28 03:04:42;;;;;;;9.50;3.20;;;;;;;0.44;42.76;101357.27;1690036;83;21282;-73
2022/03/28 03:07:09;;;;;;;7.37;3.37;;;;;;;0.47;42.71;101358.74;1695542;83;20987;-73
2022/03/28 03:09:38;;;;;;;15.58;3.60;;;;;;;0.49;42.76;101359.37;1685537;83;21097;-72
2022/03/28 03:12:06;;;;;;;10.60;3.22;;;;;;;0.56;42.90;101359.04;1673629;84;21101;-74
2022/03/28 03:14:35;;;;;;;9.50;3.25;;;;;;;0.63;43.16;101366.56;1689203;83;21038;-72
2022/03/28 03:17:02;;;;;;;8.83;3.50;;;;;;;0.68;42.90;101356.83;1681654;84;21215;-74
2022/03/28 03:19:30;;;;;;;10.18;3.77;;;;;;;0.72;42.59;101366.50;1678561;84;21669;-73
2022/03/28 03:21:57;;;;;;;13.83;4.78;;;;;;;0.73;42.52;101358.46;1679103;84;21039;-72
2022/03/28 03:24:24;;;;;;;14.20;3.83;;;;;;;0.76;42.52;101357.27;1677632;84;21134;-73
2022/03/28 03:26:51;;;;;;;11.12;3.70;;;;;;;0.77;42.54;101354.48;1687275;81;21094;-73
2022/03/28 03:29:19;;;;;;;10.82;3.90;;;;;;;0.80;42.55;101350.20;1682869;84;21455;-73
2022/03/28 03:31:47;;;;;;;9.65;3.80;;;;;;;0.83;42.57;101353.80;1681584;84;21452;-73
2022/03/28 03:34:14;;;;;;;14.73;3.92;;;;;;;0.87;42.60;101349.83;1679284;84;21077;-73
2022/03/28 03:36:41;;;;;;;9.30;3.42;;;;;;;0.90;42.08;101340.27;1684170;83;21073;-76
2022/03/28 03:39:08;;;;;;;12.35;3.75;;;;;;;0.89;41.84;101341.28;1681257;82;21061;-73
2022/03/28 03:41:36;;;;;;;8.40;3.35;;;;;;;0.86;41.71;101338.17;1721323;83;21618;-74
2022/03/28 03:44:04;;;;;;;9.58;3.90;;;;;;;0.85;41.55;101338.64;1720592;82;21102;-74
2022/03/28 03:46:32;;;;;;;8.10;3.12;;;;;;;0.84;41.45;101333.58;1707572;83;21373;-73
2022/03/28 03:49:00;;;;;;;9.68;4.00;;;;;;;0.82;41.33;101328.97;1692613;83;21056;-74
2022/03/28 03:51:27;;;;;;;9.35;3.72;;;;;;;0.81;41.45;101328.66;1692938;84;21068;-74
2022/03/28 03:53:55;;;;;;;10.10;3.58;;;;;;;0.82;41.29;101328.47;1693615;83;21566;-73
2022/03/28 03:56:22;;;;;;;6.83;3.05;;;;;;;0.81;41.32;101328.66;1695254;83;21020;-73
2022/03/28 03:58:50;;;;;;;9.20;3.50;;;;;;;0.81;41.43;101331.30;1668374;84;21153;-74
2022/03/28 04:01:18;;;;;;;10.53;3.70;;;;;;;0.79;41.54;101324.91;1679094;84;21011;-73
2022/03/28 04:03:45;;;;;;;10.28;3.65;;;;;;;0.80;41.52;101320.45;1710629;83;21067;-74
2022/03/28 04:06:13;;;;;;;10.63;3.92;;;;;;;0.79;41.47;101320.11;1714564;82;21260;-74
2022/03/28 04:08:42;;;;;;;12.90;3.95;;;;;;;0.78;41.56;101315.36;1722249;83;21020;-73
2022/03/28 04:11:11;;;;;;;9.23;3.27;;;;;;;0.78;41.66;101319.30;1695002;83;21204;-74
2022/03/28 04:13:40;;;;;;;8.25;3.67;;;;;;;0.80;41.65;101319.14;1677001;84;21522;-73
2022/03/28 04:16:09;;;;;;;10.63;3.17;;;;;;;0.84;41.63;101323.05;1670959;84;20963;-73
2022/03/28 04:18:36;;;;;;;12.30;3.45;;;;;;;0.88;41.83;101317.27;1695433;82;21254;-74
2022/03/28 04:21:05;;;;;;;8.90;3.60;;;;;;;0.96;41.93;101328.75;1720879;83;21411;-74
2022/03/28 04:23:32;;;;;;;11.90;3.75;;;;;;;0.99;41.70;101331.00;1721539;83;20982;-73
2022/03/28 04:25:59;;;;;;;9.28;3.58;;;;;;;1.05;41.70;101332.94;1686138;83;21082;-73
2022/03/28 04:28:28;;;;;;;9.60;3.83;;;;;;;1.10;41.53;101321.41;1688625;81;21094;-72
2022/03/28 04:30:56;;;;;;;10.00;3.33;;;;;;;1.10;41.43;101331.42;1667561;84;21790;-70
2022/03/28 04:33:23;;;;;;;9.30;3.37;;;;;;;1.14;41.44;101326.13;1676500;83;21078;-73
2022/03/28 04:35:51;;;;;;;7.30;3.50;;;;;;;1.21;41.48;101325.42;1636329;86;21578;-75
2022/03/28 04:38:19;;;;;;;7.20;3.20;;;;;;;1.25;41.14;101312.23;1639550;86;21071;-74
2022/03/28 04:40:47;;;;;;;9.80;3.65;;;;;;;1.29;41.07;101308.27;1619941;85;21093;-73
2022/03/28 04:43:14;;;;;;;9.38;3.30;;;;;;;1.34;41.05;101313.80;1687408;84;21126;-74
2022/03/28 04:45:42;;;;;;;8.08;3.87;;;;;;;1.41;40.93;101304.20;1689274;84;21453;-73
2022/03/28 04:48:09;;;;;;;12.65;4.25;;;;;;;1.47;40.75;101307.94;1683407;84;21058;-73
2022/03/28 04:50:38;;;;;;;15.58;4.15;;;;;;;1.51;40.67;101300.00;1676862;83;21580;-73
2022/03/28 04:53:05;;;;;;;9.40;4.40;;;;;;;1.55;40.69;101304.74;1677082;83;21047;-73
2022/03/28 04:55:33;;;;;;;11.28;4.10;;;;;;;1.60;40.70;101303.69;1658446;85;21260;-74
2022/03/28 04:58:01;;;;;;;10.38;3.65;;;;;;;1.67;40.79;101299.84;1677623;84;20943;-75
2022/03/28 05:00:29;;;;;;;8.43;3.72;;;;;;;1.75;40.66;101289.23;1677110;81;21064;-72
2022/03/28 05:02:57;;;;;;;8.45;3.25;;;;;;;1.85;40.82;101267.90;1678888;83;21067;-72
2022/03/28 05:05:25;;;;;;;7.97;3.50;;;;;;;1.97;40.96;101266.42;1676662;83;21428;-72
2022/03/28 05:07:52;;;;;;;9.43;3.87;;;;;;;2.09;40.61;101269.42;1676096;83;21622;-73
2022/03/28 05:10:20;;;;;;;9.13;4.00;;;;;;;2.19;40.69;101277.05;1684565;81;21108;-73
2022/03/28 05:12:47;;;;;;;7.80;3.33;;;;;;;2.28;40.49;101284.67;1720450;83;21094;-71
2022/03/28 05:15:14;;;;;;;11.78;3.60;;;;;;;2.38;40.46;101271.20;1715704;83;21125;-71
2022/03/28 05:17:41;;;;;;;7.17;3.50;;;;;;;2.50;40.27;101262.29;1678364;83;21523;-72
2022/03/28 05:20:11;;;;;;;7.45;4.05;;;;;;;2.59;40.23;101266.45;1680543;82;21822;-73
2022/03/28 05:22:39;;;;;;;8.50;3.33;;;;;;;2.63;39.58;101265.58;1677840;83;21003;-72
2022/03/28 05:25:08;;;;;;;6.87;3.00;;;;;;;2.59;39.70;101259.86;1682173;82;21134;-73
2022/03/28 05:27:45;;;;;;;9.20;3.25;;;;;;;2.62;39.71;101273.18;1687651;83;21517;-74
2022/03/28 05:30:12;;;;;;;8.53;3.33;;;;;;;2.63;39.86;101275.62;1693267;84;20956;-74
2022/03/28 05:32:42;;;;;;;8.68;3.05;;;;;;;2.62;39.64;101273.18;1688186;82;21838;-72
2022/03/28 05:35:10;;;;;;;6.67;2.60;;;;;;;2.70;39.68;101267.77;1683533;83;20976;-71
2022/03/28 05:37:37;;;;;;;7.60;3.08;;;;;;;2.79;39.73;101267.97;1683864;83;21039;-71
2022/03/28 05:40:07;;;;;;;6.83;2.65;;;;;;;2.87;39.66;101261.27;1664656;84;21178;-74
2022/03/28 05:42:34;;;;;;;6.17;2.35;;;;;;;2.90;39.30;101255.62;1655599;83;21062;-73
2022/03/28 05:45:03;;;;;;;9.00;2.80;;;;;;;2.90;39.51;101248.20;1676275;84;21562;-72
2022/03/28 05:47:31;;;;;;;5.55;2.55;;;;;;;2.95;39.35;101249.76;1659074;84;21457;-73
2022/03/28 05:49:57;;;;;;;7.75;2.75;;;;;;;2.97;39.35;101257.00;1658186;85;21167;-72
2022/03/28 05:52:24;;;;;;;5.95;2.50;;;;;;;3.03;39.29;101264.97;1659334;84;21053;-74
2022/03/28 05:54:51;;;;;;;8.63;2.58;;;;;;;3.03;38.91;101257.05;1681784;83;21664;-72
2022/03/28 05:57:19;;;;;;;10.15;3.67;;;;;;;3.05;38.89;101243.66;1687332;81;21150;-73
2022/03/28 05:59:46;;;;;;;9.08;2.80;;;;;;;3.08;38.97;101245.91;1688700;84;21060;-73
2022/03/28 06:02:13;;;;;;;5.40;2.65;;;;;;;3.13;39.13;101242.72;1686601;82;21085;-70
2022/03/28 06:04:42;;;;;;;7.05;2.55;;;;;;;3.19;39.16;101233.53;1676139;83;21200;-74
2022/03/28 06:07:09;;;;;;;7.17;2.25;;;;;;;3.30;39.09;101220.30;1686454;83;21018;-73
2022/03/28 06:09:36;;;;;;;4.33;2.20;;;;;;;3.41;38.88;101219.75;1656784;85;21313;-73
2022/03/28 06:12:04;;;;;;;5.60;2.10;;;;;;;3.53;38.61;101216.89;1689189;81;21031;-72
2022/03/28 06:14:32;;;;;;;6.10;2.25;;;;;;;3.68;38.27;101217.27;1706663;83;21506;-74
2022/03/28 06:16:59;;;;;;;8.05;2.47;;;;;;;3.76;38.06;101213.16;1696866;83;21599;-72
2022/03/28 06:19:28;;;;;;;5.97;2.40;;;;;;;3.87;37.91;101208.62;1710710;83;21051;-74
2022/03/28 06:21:55;;;;;;;6.35;2.22;;;;;;;3.99;37.51;101211.03;1707442;83;21248;-74
2022/03/28 06:24:23;;;;;;;8.00;2.90;;;;;;;4.07;37.61;101210.03;1722177;83;21037;-75
2022/03/28 06:26:50;;;;;;;5.90;2.22;;;;;;;4.18;37.70;101206.02;1709639;81;20978;-74
2022/03/28 06:29:17;;;;;;;5.45;2.20;;;;;;;4.31;37.22;101207.39;1693241;84;21074;-75
2022/03/28 06:31:45;;;;;;;5.15;2.20;;;;;;;4.44;36.80;101197.31;1693395;83;21624;-73
2022/03/28 06:34:13;;;;;;;6.40;2.40;;;;;;;4.56;36.66;101202.84;1707693;83;21274;-72
2022/03/28 06:36:43;;;;;;;8.95;2.33;;;;;;;4.63;36.60;101207.64;1678519;84;21015;-71
2022/03/28 06:39:10;;;;;;;5.45;2.40;;;;;;;4.68;36.39;101202.05;1678997;84;21110;-72
2022/03/28 06:41:38;;;;;;;6.62;2.35;;;;;;;4.74;36.41;101195.15;1704154;83;21049;-74
2022/03/28 06:44:07;;;;;;;5.53;2.12;;;;;;;4.87;36.25;101191.19;1695743;83;21692;-75
2022/03/28 06:46:35;;;;;;;4.47;2.30;;;;;;;4.97;36.02;101181.99;1672498;85;21159;-74
2022/03/28 06:49:02;;;;;;;8.03;3.10;;;;;;;4.99;35.70;101182.10;1675545;84;20964;-71
2022/03/28 06:51:32;;;;;;;5.50;2.50;;;;;;;4.99;35.69;101174.67;1673961;82;20996;-74
2022/03/28 06:54:00;;;;;;;8.05;2.30;;;;;;;5.06;35.71;101171.51;1676080;83;21030;-73
2022/03/28 06:56:27;;;;;;;6.92;2.42;;;;;;;5.14;35.41;101158.07;1679952;83;21011;-74
2022/03/28 06:58:55;;;;;;;6.83;2.50;;;;;;;5.22;35.08;101140.62;1668508;83;21381;-72
2022/03/28 07:01:23;;;;;;;4.53;1.90;;;;;;;5.30;35.03;101132.98;1675398;83;21526;-73
2022/03/28 07:03:51;;;;;;;6.25;2.15;;;;;;;5.43;35.00;101129.45;1685112;83;21688;-73
2022/03/28 07:06:20;;;;;;;5.17;2.05;;;;;;;5.54;34.45;101123.53;1676449;83;21105;-74
2022/03/28 07:08:48;;;;;;;6.53;2.45;;;;;;;5.64;34.29;101121.25;1679124;82;21085;-74
2022/03/28 07:11:20;;;;;;;4.65;2.08;;;;;;;5.74;34.29;101126.09;1685012;83;21157;-74
2022/03/28 07:13:47;;;;;;;4.28;1.98;;;;;;;5.83;34.35;101131.47;1663150;84;21167;-74
2022/03/28 07:16:15;;;;;;;5.60;2.30;;;;;;;5.87;33.96;101126.84;1678455;83;21184;-73
2022/03/28 07:18:45;;;;;;;6.08;2.75;;;;;;;5.90;33.72;101128.78;1690949;83;22371;-72
2022/03/28 07:21:13;;;;;;;6.08;2.02;;;;;;;5.89;33.25;101125.32;1679818;83;21138;-74
2022/03/28 07:23:41;;;;;;;4.58;2.02;;;;;;;5.91;33.43;101113.97;1692168;84;22319;-74
2022/03/28 07:26:08;;;;;;;6.10;1.90;;;;;;;5.93;33.02;101112.48;1693083;83;21035;-73
2022/03/28 07:28:38;;;;;;;4.92;2.05;;;;;;;5.95;32.99;101097.16;1685041;83;20999;-76
2022/03/28 07:31:08;;;;;;;3.75;1.80;;;;;;;6.04;32.81;101081.30;1668793;84;21113;-74
2022/03/28 07:33:38;;;;;;;6.35;1.67;;;;;;;6.10;32.19;101091.86;1679439;83;21018;-73
2022/03/28 07:36:05;;;;;;;6.70;2.05;;;;;;;6.18;32.47;101082.83;1663525;84;22222;-74
2022/03/28 07:38:36;;;;;;;6.30;2.10;;;;;;;6.26;32.42;101079.93;1682484;83;21130;-73
2022/03/28 07:41:04;;;;;;;5.83;1.70;;;;;;;6.39;32.53;101060.97;1682511;84;21174;-75
2022/03/28 07:43:32;;;;;;;5.78;1.80;;;;;;;6.49;32.27;101056.78;1678114;84;21042;-72
2022/03/28 07:45:59;;;;;;;6.65;1.90;;;;;;;6.58;32.31;101046.20;1677821;82;21066;-73
2022/03/28 07:48:27;;;;;;;8.55;1.95;;;;;;;6.65;31.89;101038.69;1684353;83;21243;-74
2022/03/28 07:50:55;;;;;;;5.35;1.70;;;;;;;6.73;31.89;101025.93;1684687;81;21009;-74
2022/03/28 07:53:23;;;;;;;4.47;1.80;;;;;;;6.86;31.65;101026.83;1682545;83;21074;-73
2022/03/28 07:55:50;;;;;;;5.22;1.85;;;;;;;6.97;31.15;101014.94;1683661;83;21065;-75
2022/03/28 07:58:17;;;;;;;6.17;1.70;;;;;;;7.08;30.29;101020.05;1677445;84;21046;-76
2022/03/28 08:00:47;;;;;;;7.05;2.35;;;;;;;7.16;30.19;101018.41;1678890;83;21078;-73
2022/03/28 08:03:14;;;;;;;10.75;2.80;;;;;;;7.28;29.89;101013.98;1677394;83;21002;-75
2022/03/28 08:05:42;;;;;;;3.50;1.40;;;;;;;7.44;29.46;101003.77;1680768;84;21121;-74
2022/03/28 08:08:11;;;;;;;5.85;1.47;;;;;;;7.52;29.59;100994.94;1688856;82;21075;-75
2022/03/28 08:10:38;;;;;;;5.58;2.02;;;;;;;7.62;29.22;100997.58;1683222;83;21629;-76
2022/03/28 08:13:05;;;;;;;4.58;1.77;;;;;;;7.65;28.80;100987.83;1682121;84;21326;-75
2022/03/28 08:15:35;;;;;;;3.87;1.70;;;;;;;7.72;28.77;100988.53;1683850;82;21039;-75
2022/03/28 08:18:02;;;;;;;3.55;1.30;;;;;;;7.75;28.38;100978.78;1675509;83;21054;-73
2022/03/28 08:20:31;;;;;;;4.08;1.55;;;;;;;7.82;28.38;100984.80;1692936;83;21043;-74
2022/03/28 08:23:00;;;;;;;5.67;1.55;;;;;;;7.91;28.33;100966.15;1674107;84;21049;-74
2022/03/28 08:25:27;;;;;;;5.22;1.60;;;;;;;8.03;28.09;100940.91;1682366;82;21272;-73
2022/03/28 08:27:54;;;;;;;4.00;1.32;;;;;;;8.15;28.08;100955.00;1687746;83;21115;-73
2022/03/28 08:30:22;;;;;;;4.67;1.40;;;;;;;8.27;27.80;100944.90;1680507;83;21137;-75
2022/03/28 08:32:49;;;;;;;6.40;1.80;;;;;;;8.34;27.85;100926.43;1679537;83;21055;-72
2022/03/28 08:35:16;;;;;;;6.35;1.82;;;;;;;8.42;27.64;100935.94;1680243;83;21035;-75
2022/03/28 08:37:44;;;;;;;4.22;1.50;;;;;;;8.46;27.90;100925.13;1670300;83;21223;-78
2022/03/28 08:40:12;;;;;;;4.42;1.37;;;;;;;8.57;27.57;100927.48;1664123;84;21016;-75
2022/03/28 08:42:42;;;;;;;4.60;1.90;;;;;;;8.71;27.73;100920.84;1678125;83;21843;-74
2022/03/28 08:45:13;;;;;;;5.35;1.32;;;;;;;8.89;27.13;100918.55;1688503;83;21093;-77
2022/03/28 08:47:42;;;;;;;6.15;1.52;;;;;;;9.05;27.22;100895.15;1689906;83;21117;-72
2022/03/28 08:50:13;;;;;;;4.17;1.70;;;;;;;9.21;27.48;100888.22;1679786;82;21139;-74
2022/03/28 08:52:41;;;;;;;4.28;1.57;;;;;;;9.44;27.31;100894.48;1690751;83;21011;-75
2022/03/28 08:55:11;;;;;;;6.47;1.60;;;;;;;9.62;27.14;100877.73;1679567;84;21046;-73
2022/03/28 08:57:39;;;;;;;2.90;1.37;;;;;;;9.86;26.83;100889.56;1676278;84;21098;-74
2022/03/28 09:00:09;;;;;;;5.80;1.60;;;;;;;10.06;26.79;100859.16;1686059;83;21035;-74
2022/03/28 09:02:42;;;;;;;4.25;1.65;;;;;;;10.16;26.13;100887.05;1674207;84;21210;-78
2022/03/28 09:05:10;;;;;;;6.53;2.25;;;;;;;10.23;26.15;100831.12;1670232;84;21002;-73
2022/03/28 09:07:37;;;;;;;4.45;1.75;;;;;;;10.32;26.20;100854.20;1665137;86;21023;-78
2022/03/28 09:10:16;;;;;;;4.80;1.40;;;;;;;10.41;26.24;100833.22;1666144;84;21066;-74
2022/03/28 09:13:11;;;;;;;4.47;1.50;;;;;;;10.49;25.98;100841.58;1664104;86;22093;-74
2022/03/28 09:15:58;;;;;;;10.38;1.70;;;;;;;10.56;26.08;100846.23;1657864;85;21336;-74
2022/03/28 09:18:39;;;;;;;4.53;1.62;;;;;;;10.61;26.05;100824.64;1699311;84;38467;-75
2022/03/28 09:21:06;;;;;;;5.42;1.70;;;;;;;10.65;26.09;100823.07;1692386;84;21036;-74
2022/03/28 09:23:49;;;;;;;4.33;1.50;;;;;;;10.65;26.01;100817.20;1682855;83;21134;-73
2022/03/28 09:26:20;;;;;;;5.62;1.85;;;;;;;10.70;26.16;100819.94;1679420;84;21129;-74
2022/03/28 09:28:56;;;;;;;6.55;1.70;;;;;;;10.78;26.54;100828.83;1693987;83;21149;-76
2022/03/28 09:31:30;;;;;;;4.17;1.40;;;;;;;10.85;26.28;100812.59;1681742;84;21038;-74
2022/03/28 09:34:12;;;;;;;5.00;1.82;;;;;;;10.97;26.74;100803.89;1684712;84;21184;-75
2022/03/28 09:36:48;;;;;;;5.10;1.77;;;;;;;11.14;26.46;100786.94;1682040;83;21798;-73
2022/03/28 09:39:19;;;;;;;3.98;1.90;;;;;;;11.30;26.58;100783.32;1683490;84;21081;-76
2022/03/28 09:42:10;;;;;;;3.98;1.60;;;;;;;11.38;25.96;100772.67;1679705;84;21233;-75
2022/03/28 09:44:44;;;;;;;8.30;2.30;;;;;;;11.39;25.77;100774.30;1686020;84;21137;-76
2022/03/28 09:47:14;;;;;;;6.92;2.17;;;;;;;11.39;26.18;100772.43;1684710;84;21119;-73
2022/03/28 09:49:43;;;;;;;6.40;2.30;;;;;;;11.46;26.71;100760.17;1685002;83;21039;-78
2022/03/28 09:52:17;;;;;;;5.30;2.40;;;;;;;11.51;25.77;100738.79;1680171;83;21046;-74
2022/03/28 09:54:50;;;;;;;5.45;2.27;;;;;;;11.51;25.92;100726.21;1679184;84;21213;-80
2022/03/28 09:57:32;;;;;;;5.28;2.27;;;;;;;11.53;26.32;100730.52;1686069;84;21051;-79
2022/03/28 10:00:17;;;;;;;6.50;2.10;;;;;;;11.58;26.05;100712.64;1676762;83;21111;-73
2022/03/28 10:02:46;;;;;;;4.72;2.33;;;;;;;11.73;25.97;100710.02;1682763;84;21143;-74
2022/03/28 10:05:14;;;;;;;5.08;2.75;;;;;;;11.84;26.23;100701.52;1688695;84;22310;-74
2022/03/28 10:07:43;;;;;;;6.35;2.20;;;;;;;11.95;26.16;100693.02;1681433;84;21054;-74
2022/03/28 10:10:11;;;;;;;6.87;2.20;;;;;;;12.05;25.75;100686.90;1680239;84;21461;-74
2022/03/28 10:12:40;;;;;;;5.62;2.10;;;;;;;12.12;25.64;100680.75;1681892;83;21093;-74
2022/03/28 10:15:08;;;;;;;4.05;2.05;;;;;;;12.17;25.82;100672.72;1681590;84;21129;-73
2022/03/28 10:17:36;;;;;;;5.85;2.72;;;;;;;12.27;25.77;100653.98;1687987;84;20959;-75
2022/03/28 10:20:04;;;;;;;7.60;3.00;;;;;;;12.33;25.71;100675.70;1676564;84;21177;-72
2022/03/28 10:22:36;;;;;;;7.08;2.55;;;;;;;12.38;25.75;100670.36;1687316;83;21078;-76
2022/03/28 10:25:09;;;;;;;6.33;2.17;;;;;;;12.39;25.40;100662.58;1664520;84;21513;-75
2022/03/28 10:27:37;;;;;;;8.20;2.37;;;;;;;12.42;25.85;100651.34;1680886;83;21031;-76
2022/03/28 10:30:27;;;;;;;6.55;2.70;;;;;;;12.60;25.74;100631.78;1720852;83;21063;-75
2022/03/28 10:33:17;;;;;;;6.22;2.20;;;;;;;12.82;25.75;100619.45;1688248;83;21135;-74
2022/03/28 10:36:07;;;;;;;6.83;2.30;;;;;;;13.01;25.34;100632.55;1640085;85;20948;-74
2022/03/28 10:38:36;;;;;;;6.70;2.67;;;;;;;13.07;25.01;100626.66;1660546;85;21605;-73
2022/03/28 10:41:09;;;;;;;6.55;2.33;;;;;;;13.05;25.07;100614.05;1670403;84;21126;-76
2022/03/28 10:43:34;;;;;;;4.35;2.12;;;;;;;13.02;24.82;100610.56;1677771;84;21369;-74
2022/03/28 10:46:09;;;;;;;4.90;2.20;;;;;;;13.01;25.07;100601.72;1678954;84;21558;-78
2022/03/28 10:48:48;;;;;;;6.08;2.35;;;;;;;13.10;25.50;100630.14;1683603;84;21800;-75
2022/03/28 10:51:24;;;;;;;8.18;2.60;;;;;;;13.20;24.58;100614.02;1657600;84;21083;-74
2022/03/28 10:53:58;;;;;;;7.57;2.43;;;;;;;13.19;24.83;100596.30;1681187;84;21043;-78
2022/03/28 10:56:33;;;;;;;7.60;2.17;;;;;;;13.26;25.07;100588.81;1683752;84;21239;-76
2022/03/28 10:59:08;;;;;;;5.93;2.40;;;;;;;13.37;24.68;100564.89;1686403;83;21553;-75
2022/03/28 11:01:37;;;;;;;5.83;2.10;;;;;;;13.40;24.49;100572.13;1679568;83;21295;-75
2022/03/28 11:04:16;;;;;;;5.53;2.17;;;;;;;13.43;24.86;100580.44;1680944;84;21191;-76
2022/03/28 11:07:04;;;;;;;5.87;2.47;;;;;;;13.49;24.81;100567.77;1677313;83;21187;-76
2022/03/28 11:09:51;;;;;;;7.13;2.37;;;;;;;13.52;24.34;100555.98;1671327;84;21266;-76
2022/03/28 11:12:38;;;;;;;5.13;2.17;;;;;;;13.52;24.37;100537.70;1684106;84;21149;-75
2022/03/28 11:15:18;;;;;;;5.30;2.30;;;;;;;13.63;24.92;100533.11;1684619;84;21473;-74
2022/03/28 11:17:58;;;;;;;7.30;2.20;;;;;;;13.78;24.49;100520.37;1690490;83;21316;-77
2022/03/28 11:20:28;;;;;;;5.50;2.20;;;;;;;13.90;24.64;100507.16;1660892;85;21911;-74
2022/03/28 11:23:12;;;;;;;4.93;1.93;;;;;;;13.96;24.10;100526.97;1667122;84;21466;-75
2022/03/28 11:25:46;;;;;;;6.63;2.40;;;;;;;14.02;24.32;100506.26;1677552;84;21349;-76
2022/03/28 11:28:26;;;;;;;5.47;2.27;;;;;;;14.05;24.45;100509.73;1660993;85;21165;-75
2022/03/28 11:31:08;;;;;;;4.97;2.10;;;;;;;14.09;24.27;100508.08;1637637;87;21754;-76
2022/03/28 11:33:48;;;;;;;3.90;2.07;;;;;;;14.15;24.41;100472.03;1636283;87;21311;-77
2022/03/28 11:36:18;;;;;;;6.77;2.50;;;;;;;14.15;24.43;100487.33;1633786;87;21517;-75
2022/03/28 11:38:49;;;;;;;5.17;2.23;;;;;;;14.24;24.06;100460.12;1631972;87;21218;-78
2022/03/28 11:41:19;;;;;;;9.80;2.30;;;;;;;14.21;24.09;100485.66;1645272;86;21367;-75